createdAt,value
2023-05-03T00:00:36.705Z,52.80
2023-05-03T00:03:07.055Z,52.80
2023-05-03T00:05:34.997Z,52.80
2023-05-03T00:08:02.809Z,52.70
2023-05-03T00:10:29.803Z,52.50
2023-05-03T00:12:56.939Z,52.30
2023-05-03T00:15:24.068Z,52.40
2023-05-03T00:17:51.552Z,52.40
2023-05-03T00:20:19.449Z,52.30
2023-05-03T00:22:47.326Z,52.20
2023-05-03T00:25:15.372Z,51.90
2023-05-03T00:27:42.717Z,51.70
2023-05-03T00:30:10.661Z,51.40
2023-05-03T00:32:38.058Z,51.10
2023-05-03T00:35:05.619Z,51.00
2023-05-03T00:37:32.832Z,50.80
2023-05-03T00:39:59.843Z,50.70
2023-05-03T00:42:27.442Z,50.40
2023-05-03T00:44:56.004Z,50.00
2023-05-03T00:47:23.463Z,49.70
2023-05-03T00:49:51.151Z,49.80
2023-05-03T00:52:18.508Z,49.70
2023-05-03T00:54:46.977Z,49.50
2023-05-03T00:57:14.764Z,49.40
2023-05-03T00:59:42.472Z,49.30
2023-05-03T01:02:11.251Z,49.90
2023-05-03T01:04:39.739Z,49.10
2023-05-03T01:07:48.022Z,48.90
2023-05-03T01:10:47.426Z,48.60
2023-05-03T01:13:42.940Z,48.50
2023-05-03T01:16:39.458Z,48.80
2023-05-03T01:19:20.170Z,48.80
2023-05-03T01:21:57.113Z,49.00
2023-05-03T01:24:26.394Z,49.00
2023-05-03T01:26:53.938Z,49.00
2023-05-03T01:29:20.926Z,48.90
2023-05-03T01:31:57.689Z,49.00
2023-05-03T01:34:49.071Z,49.10
2023-05-03T01:37:16.979Z,49.10
2023-05-03T01:40:05.507Z,49.10
2023-05-03T01:42:35.182Z,49.00
2023-05-03T01:45:04.501Z,49.10
2023-05-03T01:47:31.945Z,49.10
2023-05-03T01:49:59.739Z,49.10
2023-05-03T01:52:27.161Z,49.20
2023-05-03T01:54:54.182Z,49.20
2023-05-03T01:57:21.240Z,49.20
2023-05-03T01:59:48.306Z,49.30
2023-05-03T02:02:15.312Z,49.40
2023-05-03T02:04:42.916Z,49.50
2023-05-03T02:07:09.995Z,49.70
2023-05-03T02:09:38.021Z,49.80
2023-05-03T02:12:05.758Z,49.90
2023-05-03T02:14:33.149Z,50.00
2023-05-03T02:17:00.638Z,50.10
2023-05-03T02:19:27.905Z,50.20
2023-05-03T02:21:55.145Z,50.40
2023-05-03T02:24:23.832Z,50.40
2023-05-03T02:26:51.103Z,50.40
2023-05-03T02:29:18.047Z,50.40
2023-05-03T02:31:45.836Z,50.60
2023-05-03T02:34:12.935Z,50.60
2023-05-03T02:36:39.916Z,50.30
2023-05-03T02:39:06.981Z,50.30
2023-05-03T02:41:36.132Z,50.50
2023-05-03T02:44:05.107Z,50.50
2023-05-03T02:46:32.251Z,50.50
2023-05-03T02:48:59.701Z,50.50
2023-05-03T02:51:28.352Z,50.50
2023-05-03T02:53:55.706Z,50.40
2023-05-03T02:56:23.085Z,50.60
2023-05-03T02:58:50.021Z,50.60
2023-05-03T03:01:17.387Z,50.80
2023-05-03T03:03:44.831Z,50.80
2023-05-03T03:06:11.905Z,50.80
2023-05-03T03:08:39.604Z,50.90
2023-05-03T03:11:08.252Z,50.90
2023-05-03T03:13:39.786Z,50.90
2023-05-03T03:16:08.279Z,50.90
2023-05-03T03:18:37.052Z,51.10
2023-05-03T03:21:04.392Z,51.20
2023-05-03T03:23:32.959Z,51.30
2023-05-03T03:26:00.126Z,51.30
2023-05-03T03:28:27.493Z,51.50
2023-05-03T03:30:57.173Z,51.60
2023-05-03T03:33:25.912Z,51.80
2023-05-03T03:35:57.569Z,51.90
2023-05-03T03:38:29.324Z,52.10
2023-05-03T03:41:02.682Z,52.10
2023-05-03T03:43:30.180Z,52.10
2023-05-03T03:45:58.171Z,52.20
2023-05-03T03:48:26.429Z,52.30
2023-05-03T03:50:54.176Z,52.40
2023-05-03T03:53:26.011Z,52.30
2023-05-03T03:55:53.024Z,52.40
2023-05-03T03:58:21.114Z,52.50
2023-05-03T04:00:48.371Z,52.60
2023-05-03T04:03:18.875Z,52.60
2023-05-03T04:05:47.497Z,52.60
2023-05-03T04:08:16.959Z,52.60
2023-05-03T04:10:46.086Z,52.60
2023-05-03T04:13:14.440Z,52.60
2023-05-03T04:15:41.358Z,52.50
2023-05-03T04:18:09.000Z,52.40
2023-05-03T04:20:39.721Z,52.30
2023-05-03T04:23:08.530Z,52.10
2023-05-03T04:25:37.105Z,52.10
2023-05-03T04:28:11.170Z,52.20
2023-05-03T04:30:44.672Z,52.20
2023-05-03T04:33:14.778Z,52.20
2023-05-03T04:35:42.687Z,52.10
2023-05-03T04:38:13.412Z,52.10
2023-05-03T04:40:42.356Z,52.00
2023-05-03T04:43:11.282Z,52.10
2023-05-03T04:45:42.296Z,52.10
2023-05-03T04:48:14.221Z,52.10
2023-05-03T04:50:42.886Z,52.10
2023-05-03T04:53:12.152Z,52.30
2023-05-03T04:55:42.667Z,52.40
2023-05-03T04:58:10.883Z,52.50
2023-05-03T05:00:38.960Z,52.60
2023-05-03T05:03:13.230Z,52.40
2023-05-03T05:05:40.455Z,52.30
2023-05-03T05:08:09.597Z,52.20
2023-05-03T05:10:41.978Z,52.30
2023-05-03T05:13:11.592Z,52.20
2023-05-03T05:15:38.865Z,52.20
2023-05-03T05:18:06.263Z,52.30
2023-05-03T05:20:36.080Z,52.20
2023-05-03T05:23:03.635Z,52.10
2023-05-03T05:25:30.703Z,52.00
2023-05-03T05:28:00.674Z,52.00
2023-05-03T05:30:29.536Z,52.00
2023-05-03T05:33:00.037Z,51.80
2023-05-03T05:35:27.692Z,51.90
2023-05-03T05:37:54.815Z,51.90
2023-05-03T05:40:22.515Z,52.40
2023-05-03T05:42:54.881Z,51.40
2023-05-03T05:45:24.058Z,51.30
2023-05-03T05:47:52.679Z,51.30
2023-05-03T05:50:20.013Z,51.10
2023-05-03T05:52:53.655Z,51.00
2023-05-03T05:55:22.029Z,50.90
2023-05-03T05:57:50.886Z,50.80
2023-05-03T06:00:21.632Z,50.20
2023-05-03T06:02:49.328Z,50.10
2023-05-03T06:05:20.280Z,50.00
2023-05-03T06:07:47.573Z,50.00
2023-05-03T06:10:14.682Z,50.80
2023-05-03T06:12:45.985Z,49.80
2023-05-03T06:15:18.180Z,49.60
2023-05-03T06:17:45.650Z,49.30
2023-05-03T06:20:14.550Z,49.50
2023-05-03T06:22:46.270Z,49.60
2023-05-03T06:25:16.199Z,49.40
2023-05-03T06:27:46.236Z,48.80
2023-05-03T06:30:13.630Z,48.90
2023-05-03T06:32:42.455Z,48.70
2023-05-03T06:35:11.600Z,48.10
2023-05-03T06:37:40.167Z,48.00
2023-05-03T06:40:07.954Z,47.90
2023-05-03T06:42:36.931Z,47.70
2023-05-03T06:45:08.582Z,47.80
2023-05-03T06:47:40.185Z,47.60
2023-05-03T06:50:08.151Z,47.70
2023-05-03T06:52:35.343Z,47.00
2023-05-03T06:55:04.884Z,47.00
2023-05-03T06:57:31.962Z,47.40
2023-05-03T06:59:59.425Z,47.10
2023-05-03T07:02:27.078Z,46.70
2023-05-03T07:04:54.207Z,45.90
2023-05-03T07:07:21.528Z,45.10
2023-05-03T07:09:48.638Z,44.50
2023-05-03T07:12:16.589Z,44.70
2023-05-03T07:14:43.859Z,43.80
2023-05-03T07:17:11.038Z,43.20
2023-05-03T07:19:39.694Z,42.70
2023-05-03T07:22:07.260Z,41.90
2023-05-03T07:24:34.200Z,41.60
2023-05-03T07:27:03.840Z,40.90
2023-05-03T07:29:30.884Z,39.90
2023-05-03T07:31:58.162Z,40.00
2023-05-03T07:34:25.701Z,38.90
2023-05-03T07:36:52.756Z,38.40
2023-05-03T07:39:20.027Z,39.10
2023-05-03T07:41:47.200Z,37.30
2023-05-03T07:44:14.220Z,36.90
2023-05-03T07:46:41.214Z,36.80
2023-05-03T07:49:08.268Z,34.90
2023-05-03T07:51:36.353Z,35.00
2023-05-03T07:54:04.384Z,34.20
2023-05-03T07:56:32.202Z,33.90
2023-05-03T08:01:30.703Z,33.20
2023-05-03T08:03:58.716Z,32.30
2023-05-03T08:06:28.896Z,32.10
2023-05-03T08:08:57.075Z,32.20
2023-05-03T08:11:24.004Z,32.10
2023-05-03T08:13:50.970Z,31.50
2023-05-03T08:16:21.183Z,32.10
2023-05-03T08:18:48.398Z,32.00
2023-05-03T08:21:17.805Z,32.30
2023-05-03T08:23:46.848Z,32.70
2023-05-03T08:26:14.750Z,32.70
2023-05-03T08:28:42.861Z,33.30
2023-05-03T08:31:11.874Z,33.10
2023-05-03T08:33:38.883Z,33.10
2023-05-03T08:36:07.204Z,33.80
2023-05-03T08:38:37.785Z,33.40
2023-05-03T08:41:19.453Z,34.10
2023-05-03T08:43:52.119Z,33.90
2023-05-03T08:46:19.273Z,33.60
2023-05-03T08:48:52.748Z,33.00
2023-05-03T08:51:24.165Z,32.50
2023-05-03T08:53:51.797Z,31.40
2023-05-03T08:56:34.082Z,31.40
2023-05-03T08:59:07.636Z,30.30
2023-05-03T09:01:40.133Z,30.30
2023-05-03T09:04:08.287Z,30.00
2023-05-03T09:06:37.320Z,29.40
2023-05-03T09:09:09.920Z,28.80
2023-05-03T09:11:39.146Z,29.50
2023-05-03T09:14:18.060Z,29.30
2023-05-03T09:16:47.194Z,29.30
2023-05-03T09:19:16.555Z,29.10
2023-05-03T09:21:47.342Z,29.20
2023-05-03T09:24:22.448Z,29.30
2023-05-03T09:26:51.165Z,29.00
2023-05-03T09:29:29.920Z,28.40
2023-05-03T09:32:02.807Z,29.00
2023-05-03T09:34:30.046Z,29.60
2023-05-03T09:36:57.109Z,29.30
2023-05-03T09:39:24.347Z,29.10
2023-05-03T09:41:51.403Z,29.30
2023-05-03T09:44:18.375Z,28.90
2023-05-03T09:47:04.938Z,28.90
2023-05-03T09:49:33.617Z,27.20
2023-05-03T09:52:05.025Z,27.40
2023-05-03T09:54:32.222Z,27.60
2023-05-03T09:57:00.824Z,28.30
2023-05-03T09:59:28.067Z,28.60
2023-05-03T10:01:59.879Z,28.80
2023-05-03T10:04:38.795Z,27.80
2023-05-03T10:07:10.722Z,27.60
2023-05-03T10:09:43.288Z,26.90
2023-05-03T10:12:12.831Z,27.10
2023-05-03T10:14:49.072Z,27.40
2023-05-03T10:17:43.691Z,27.70
2023-05-03T10:20:29.329Z,28.10
2023-05-03T10:23:05.827Z,27.30
2023-05-03T10:25:34.891Z,26.40
2023-05-03T10:28:06.692Z,27.10
2023-05-03T10:30:36.851Z,27.10
2023-05-03T10:33:10.167Z,27.50
2023-05-03T10:35:43.187Z,27.50
2023-05-03T10:38:17.858Z,26.90
2023-05-03T10:40:45.153Z,27.20
2023-05-03T10:43:30.712Z,26.00
2023-05-03T10:46:01.131Z,27.00
2023-05-03T10:48:31.411Z,26.90
2023-05-03T10:51:33.609Z,26.30
2023-05-03T10:54:00.636Z,26.40
2023-05-03T10:56:27.773Z,26.70
2023-05-03T10:58:57.034Z,27.70
2023-05-03T11:01:26.900Z,26.60
2023-05-03T11:04:13.060Z,27.00
2023-05-03T11:06:41.889Z,27.00
2023-05-03T11:09:12.186Z,27.20
2023-05-03T11:11:41.169Z,27.00
2023-05-03T11:14:09.589Z,26.20
2023-05-03T11:16:37.223Z,26.40
2023-05-03T11:19:04.443Z,26.20
2023-05-03T11:21:32.403Z,26.60
2023-05-03T11:23:59.834Z,27.30
2023-05-03T11:26:27.611Z,27.90
2023-05-03T11:28:55.036Z,27.20
2023-05-03T11:31:22.956Z,27.40
2023-05-03T11:33:51.182Z,27.20
2023-05-03T11:36:18.263Z,27.80
2023-05-03T11:38:45.869Z,27.80
2023-05-03T11:41:17.946Z,28.00
2023-05-03T11:43:46.700Z,28.60
2023-05-03T11:46:25.093Z,28.30
2023-05-03T11:48:52.369Z,28.00
2023-05-03T11:51:24.003Z,27.70
2023-05-03T11:53:53.802Z,28.30
2023-05-03T11:56:22.850Z,29.00
2023-05-03T11:58:58.812Z,28.10
2023-05-03T12:01:31.297Z,28.10
2023-05-03T12:04:02.762Z,28.70
2023-05-03T12:06:33.753Z,28.30
2023-05-03T12:09:03.936Z,28.60
2023-05-03T12:11:42.965Z,28.40
2023-05-03T12:14:11.629Z,28.60
2023-05-03T12:16:51.191Z,28.70
2023-05-03T12:19:32.322Z,27.80
2023-05-03T12:22:22.819Z,28.60
2023-05-03T12:25:00.472Z,28.10
2023-05-03T12:27:32.485Z,28.50
2023-05-03T12:30:02.109Z,28.00
2023-05-03T12:32:30.560Z,27.80
2023-05-03T12:35:01.922Z,27.60
2023-05-03T12:37:33.181Z,27.80
2023-05-03T12:40:28.808Z,27.80
2023-05-03T12:42:49.368Z,28.10
2023-05-03T12:45:17.574Z,27.60
2023-05-03T12:47:50.296Z,27.60
2023-05-03T12:50:19.024Z,28.10
2023-05-03T12:52:47.164Z,28.00
2023-05-03T12:55:18.080Z,28.00
2023-05-03T12:57:59.154Z,28.20
2023-05-03T13:00:45.513Z,28.30
2023-05-03T13:03:21.123Z,28.00
2023-05-03T13:05:49.737Z,28.20
2023-05-03T13:08:21.479Z,28.70
2023-05-03T13:10:51.559Z,28.60
2023-05-03T13:13:18.616Z,28.40
2023-05-03T13:15:46.312Z,28.40
2023-05-03T13:18:14.479Z,28.80
2023-05-03T13:20:41.614Z,28.30
2023-05-03T13:23:10.993Z,28.60
2023-05-03T13:25:40.399Z,28.40
2023-05-03T13:28:07.495Z,28.70
2023-05-03T13:30:34.818Z,29.20
2023-05-03T13:33:01.994Z,28.80
2023-05-03T13:35:29.340Z,29.40
2023-05-03T13:37:56.733Z,29.60
2023-05-03T13:40:24.764Z,29.20
2023-05-03T13:42:52.620Z,29.30
2023-05-03T13:45:20.326Z,29.60
2023-05-03T13:48:05.209Z,29.40
2023-05-03T13:50:34.657Z,29.70
2023-05-03T13:53:02.288Z,29.40
2023-05-03T13:55:29.299Z,29.50
2023-05-03T13:57:56.324Z,29.00
2023-05-03T14:00:23.702Z,29.50
2023-05-03T14:02:53.180Z,30.00
2023-05-03T14:05:20.359Z,30.00
2023-05-03T14:07:47.433Z,30.40
2023-05-03T14:10:14.644Z,30.10
2023-05-03T14:12:41.864Z,30.00
2023-05-03T14:15:09.444Z,29.80
2023-05-03T14:17:36.861Z,30.00
2023-05-03T14:20:08.660Z,29.80
2023-05-03T14:22:36.493Z,29.80
2023-05-03T14:25:03.920Z,30.10
2023-05-03T14:27:31.960Z,29.80
2023-05-03T14:29:59.621Z,29.80
2023-05-03T14:32:28.130Z,30.00
2023-05-03T14:34:55.885Z,30.50
2023-05-03T14:37:23.619Z,30.20
2023-05-03T14:39:52.058Z,30.20
2023-05-03T14:42:20.516Z,29.90
2023-05-03T14:44:49.637Z,29.60
2023-05-03T14:47:18.083Z,29.60
2023-05-03T14:49:45.091Z,29.30
2023-05-03T14:52:12.058Z,29.40
2023-05-03T14:54:39.208Z,29.20
2023-05-03T14:57:06.269Z,29.00
2023-05-03T14:59:34.033Z,29.20
2023-05-03T15:02:01.691Z,29.70
2023-05-03T15:04:29.229Z,30.00
2023-05-03T15:07:00.858Z,29.90
2023-05-03T15:09:28.494Z,29.70
2023-05-03T15:11:55.405Z,29.70
2023-05-03T15:14:22.578Z,30.00
2023-05-03T15:16:49.661Z,29.70
2023-05-03T15:19:16.729Z,29.90
2023-05-03T15:21:51.485Z,30.10
2023-05-03T15:24:18.673Z,29.90
2023-05-03T15:26:46.911Z,30.00
2023-05-03T15:29:15.055Z,30.00
2023-05-03T15:31:42.963Z,30.50
2023-05-03T15:34:13.254Z,30.50
2023-05-03T15:36:40.855Z,30.90
2023-05-03T15:39:07.941Z,30.80
2023-05-03T15:41:35.088Z,30.80
2023-05-03T15:44:05.298Z,30.40
2023-05-03T15:46:33.725Z,30.60
2023-05-03T15:49:01.154Z,30.70
2023-05-03T15:51:28.199Z,30.70
2023-05-03T15:53:55.521Z,30.70
2023-05-03T15:56:22.871Z,30.80
2023-05-03T15:58:50.151Z,31.00
2023-05-03T16:01:18.799Z,30.80
2023-05-03T16:03:48.529Z,30.70
2023-05-03T16:06:18.743Z,30.80
2023-05-03T16:08:46.089Z,30.80
2023-05-03T16:11:13.404Z,30.90
2023-05-03T16:13:40.575Z,31.10
2023-05-03T16:16:09.427Z,31.20
2023-05-03T16:18:36.354Z,31.20
2023-05-03T16:21:03.471Z,31.10
2023-05-03T16:23:30.523Z,31.00
2023-05-03T16:25:57.852Z,30.90
2023-05-03T16:28:26.025Z,31.00
2023-05-03T16:30:53.490Z,30.50
2023-05-03T16:33:20.445Z,30.50
2023-05-03T16:35:47.956Z,30.60
2023-05-03T16:38:20.740Z,30.90
2023-05-03T16:40:50.510Z,31.00
2023-05-03T16:43:18.616Z,31.00
2023-05-03T16:45:47.595Z,30.90
2023-05-03T16:48:15.717Z,30.80
2023-05-03T16:50:43.582Z,31.00
2023-05-03T16:53:12.114Z,31.10
2023-05-03T16:55:39.141Z,31.10
2023-05-03T16:58:06.450Z,31.10
2023-05-03T17:00:33.710Z,31.30
2023-05-03T17:03:00.772Z,31.50
2023-05-03T17:05:33.290Z,31.20
2023-05-03T17:08:08.408Z,31.30
2023-05-03T17:10:36.749Z,31.40
2023-05-03T17:13:04.514Z,31.60
2023-05-03T17:15:33.042Z,31.80
2023-05-03T17:18:02.956Z,31.80
2023-05-03T17:20:31.661Z,31.70
2023-05-03T17:23:01.222Z,31.60
2023-05-03T17:25:28.710Z,31.60
2023-05-03T17:27:58.671Z,31.70
2023-05-03T17:30:26.058Z,31.80
2023-05-03T17:32:55.232Z,31.70
2023-05-03T17:35:24.281Z,31.90
2023-05-03T17:37:51.307Z,32.00
2023-05-03T17:40:21.846Z,32.30
2023-05-03T17:42:48.914Z,32.20
2023-05-03T17:45:16.466Z,31.90
2023-05-03T17:47:43.643Z,32.10
2023-05-03T17:50:11.759Z,32.10
2023-05-03T17:52:39.976Z,32.40
2023-05-03T17:55:07.447Z,32.60
2023-05-03T17:57:34.537Z,33.00
2023-05-03T18:00:01.684Z,33.10
2023-05-03T18:02:31.710Z,33.30
2023-05-03T18:04:59.155Z,33.40
2023-05-03T18:07:27.397Z,33.30
2023-05-03T18:09:57.608Z,33.40
2023-05-03T18:12:24.736Z,33.50
2023-05-03T18:14:52.681Z,33.80
2023-05-03T18:17:19.619Z,33.90
2023-05-03T18:19:46.563Z,34.10
2023-05-03T18:22:13.738Z,34.40
2023-05-03T18:24:40.719Z,34.60
2023-05-03T18:27:08.291Z,34.90
2023-05-03T18:29:35.360Z,35.30
2023-05-03T18:32:02.450Z,35.50
2023-05-03T18:34:29.717Z,35.80
2023-05-03T18:36:58.079Z,36.10
2023-05-03T18:39:25.410Z,36.60
2023-05-03T18:41:52.787Z,37.00
2023-05-03T18:44:23.969Z,37.30
2023-05-03T18:46:51.452Z,37.40
2023-05-03T18:49:20.494Z,37.70
2023-05-03T18:51:47.950Z,38.20
2023-05-03T18:54:14.966Z,38.20
2023-05-03T18:56:41.907Z,38.30
2023-05-03T18:59:08.881Z,38.20
2023-05-03T19:01:35.980Z,38.70
2023-05-03T19:04:05.169Z,38.90
2023-05-03T19:06:32.600Z,39.20
2023-05-03T19:09:01.020Z,39.20
2023-05-03T19:11:29.134Z,39.40
2023-05-03T19:13:56.179Z,39.50
2023-05-03T19:16:23.189Z,39.50
2023-05-03T19:18:50.075Z,39.50
2023-05-03T19:21:18.307Z,39.60
2023-05-03T19:23:45.560Z,39.80
2023-05-03T19:26:12.574Z,40.20
2023-05-03T19:28:40.428Z,40.30
2023-05-03T19:31:07.559Z,40.50
2023-05-03T19:33:34.631Z,40.90
2023-05-03T19:36:06.581Z,41.20
2023-05-03T19:38:36.118Z,41.30
2023-05-03T19:41:12.348Z,41.50
2023-05-03T19:43:40.720Z,41.70
2023-05-03T19:46:08.169Z,42.00
2023-05-03T19:48:35.359Z,42.10
2023-05-03T19:51:05.458Z,42.40
2023-05-03T19:53:34.823Z,42.70
2023-05-03T19:56:07.706Z,42.90
2023-05-03T19:58:35.858Z,43.10
2023-05-03T20:01:02.899Z,43.30
2023-05-03T20:03:29.982Z,43.40
2023-05-03T20:05:58.953Z,43.80
2023-05-03T20:08:26.365Z,43.50
2023-05-03T20:10:55.967Z,44.40
2023-05-03T20:13:25.922Z,44.70
2023-05-03T20:15:53.820Z,45.00
2023-05-03T20:18:20.970Z,45.00
2023-05-03T20:20:49.589Z,45.10
2023-05-03T20:23:17.308Z,45.20
2023-05-03T20:25:45.302Z,45.30
2023-05-03T20:28:13.053Z,45.40
2023-05-03T20:30:40.154Z,45.80
2023-05-03T20:33:07.274Z,45.80
2023-05-03T20:35:36.418Z,45.90
2023-05-03T20:38:03.768Z,45.90
2023-05-03T20:40:32.623Z,45.90
2023-05-03T20:43:01.484Z,46.10
2023-05-03T20:45:29.184Z,46.10
2023-05-03T20:47:57.921Z,46.20
2023-05-03T20:50:25.011Z,46.40
2023-05-03T20:52:52.142Z,46.50
2023-05-03T20:55:19.370Z,46.60
2023-05-03T20:57:46.727Z,46.70
2023-05-03T21:00:15.993Z,46.70
2023-05-03T21:02:45.133Z,46.80
2023-05-03T21:05:12.598Z,47.00
2023-05-03T21:07:39.874Z,46.90
2023-05-03T21:10:09.417Z,47.00
2023-05-03T21:12:36.402Z,47.00
2023-05-03T21:15:04.201Z,47.20
2023-05-03T21:17:31.203Z,47.20
2023-05-03T21:19:58.178Z,47.40
2023-05-03T21:22:26.001Z,47.40
2023-05-03T21:24:53.362Z,47.50
2023-05-03T21:27:22.140Z,47.60
2023-05-03T21:29:49.269Z,47.70
2023-05-03T21:32:16.269Z,47.80
2023-05-03T21:34:43.356Z,47.80
2023-05-03T21:37:10.362Z,48.10
2023-05-03T21:39:37.304Z,48.30
2023-05-03T21:42:04.513Z,48.30
2023-05-03T21:44:33.149Z,48.30
2023-05-03T21:47:00.724Z,48.40
2023-05-03T21:49:27.848Z,48.50
2023-05-03T21:51:55.005Z,49.20
2023-05-03T21:54:21.957Z,48.40
2023-05-03T21:56:49.064Z,48.40
2023-05-03T21:59:16.098Z,48.60
2023-05-03T22:01:44.216Z,48.70
2023-05-03T22:04:11.502Z,48.90
2023-05-03T22:06:38.546Z,48.80
2023-05-03T22:09:06.961Z,48.90
2023-05-03T22:11:33.967Z,48.80
2023-05-03T22:14:08.133Z,49.00
2023-05-03T22:16:42.177Z,49.10
2023-05-03T22:19:09.377Z,49.20
2023-05-03T22:21:36.531Z,49.30
2023-05-03T22:24:05.701Z,49.30
2023-05-03T22:26:33.060Z,49.40
2023-05-03T22:29:00.138Z,49.40
2023-05-03T22:31:27.577Z,49.40
2023-05-03T22:33:54.603Z,49.50
2023-05-03T22:36:21.684Z,49.30
2023-05-03T22:38:48.700Z,49.40
2023-05-03T22:41:15.737Z,49.40
2023-05-03T22:43:42.718Z,49.60
2023-05-03T22:46:11.098Z,49.60
2023-05-03T22:48:38.190Z,49.70
2023-05-03T22:51:05.385Z,49.80
2023-05-03T22:53:32.750Z,49.80
2023-05-03T22:56:01.694Z,49.80
2023-05-03T22:58:29.243Z,49.90
2023-05-03T23:00:58.512Z,49.90
2023-05-03T23:03:28.021Z,49.90
2023-05-03T23:05:55.595Z,49.90
2023-05-03T23:08:23.879Z,50.00
2023-05-03T23:10:50.795Z,49.90
2023-05-03T23:13:17.946Z,50.00
2023-05-03T23:15:45.841Z,50.00
2023-05-03T23:18:13.527Z,50.10
2023-05-03T23:20:40.423Z,50.20
2023-05-03T23:23:07.566Z,50.20
2023-05-03T23:25:34.919Z,50.30
2023-05-03T23:28:02.112Z,50.20
2023-05-03T23:30:30.967Z,50.40
2023-05-03T23:32:58.645Z,50.30
2023-05-03T23:35:25.970Z,50.50
2023-05-03T23:37:52.994Z,50.50
2023-05-03T23:40:20.095Z,50.50
2023-05-03T23:42:48.507Z,50.50
2023-05-03T23:45:16.014Z,50.60
2023-05-03T23:47:43.129Z,50.50
2023-05-03T23:50:10.474Z,50.50
2023-05-03T23:52:38.655Z,50.50
2023-05-03T23:55:06.579Z,50.60
2023-05-03T23:57:33.526Z,50.70
